Berkut — BERKUT — position and weather

sailwx.info

Track history (hours):
 
Tides and Currents Weather Stations Pressure Air Temp Water Temp Dewpoint Dewpoint Depression Visibility Wind Speed Wind Dir Waves Ship Positions

Berkut

Last reported at 2017-Oct-03 22:02 UTC. Time now 2017-Oct-18 03:41 UTC.
Position N 44°08' E 038°52'.
Warning: this ship's position is 14 days out of date.

Length 22 m.

Type: Passenger vessel. MMSI: 273377780.

Date/timePositionNaut miles runAvg speedWind from/ knotsBaromVisibWave heightAir tempDewpointWater temp
2017-Oct-03 22:02N 44°08' E 038°52'0 8.3
2017-Oct-03 22:00N 44°07' E 038°53'4 8.2
2017-Oct-03 21:30N 44°05' E 038°57'4 8.2
2017-Oct-03 21:00N 44°02' E 039°01'4 8.0
2017-Oct-03 20:30N 43°60' E 039°06'  
2017-Sep-25 05:12N 44°01' E 039°09'1 6.3
2017-Sep-25 04:59N 44°02' E 039°07'3 6.1
2017-Sep-25 04:30N 44°04' E 039°05'2 4.0
2017-Sep-25 03:58N 44°06' E 039°04'0 0.0
2017-Sep-25 03:28N 44°06' E 039°04'0 0.0
2017-Sep-25 02:58N 44°06' E 039°04'0 0.0
2017-Sep-25 02:28N 44°06' E 039°04'0 0.0
2017-Sep-25 01:58N 44°06' E 039°04'0 0.0
2017-Sep-25 01:28N 44°06' E 039°04'0 0.0
2017-Sep-25 00:58N 44°06' E 039°04'0 0.0
2017-Sep-25 00:28N 44°06' E 039°04'0 0.0
2017-Sep-24 23:58N 44°06' E 039°04'0 0.0
2017-Sep-24 23:28N 44°06' E 039°04'0 0.0
2017-Sep-24 22:58N 44°06' E 039°04'0 0.0
2017-Sep-24 22:28N 44°06' E 039°04'0 0.0
2017-Sep-24 21:58N 44°06' E 039°04'0 0.0
2017-Sep-24 21:28N 44°06' E 039°04'0 0.0
2017-Sep-24 20:58N 44°06' E 039°04'0 0.0
2017-Sep-24 20:28N 44°06' E 039°04'0 0.0
2017-Sep-24 19:58N 44°06' E 039°04'0 0.0
2017-Sep-24 19:28N 44°06' E 039°04'0 0.0
2017-Sep-24 18:58N 44°06' E 039°04'0 0.0
2017-Sep-24 18:28N 44°06' E 039°04'0 0.0
2017-Sep-24 17:58N 44°06' E 039°04'0 0.0
2017-Sep-24 17:28N 44°06' E 039°04'0 0.0
2017-Sep-24 16:58N 44°06' E 039°04'0 0.0
2017-Sep-24 16:28N 44°06' E 039°04'0 0.1
2017-Sep-24 15:58N 44°06' E 039°04'0 0.0
2017-Sep-24 15:28N 44°06' E 039°04'0 0.0
2017-Sep-24 14:58N 44°06' E 039°04'0 0.0
2017-Sep-24 14:28N 44°06' E 039°04'0 0.0
2017-Sep-24 13:58N 44°06' E 039°04'0 0.0
2017-Sep-24 13:28N 44°06' E 039°04'0 0.0
2017-Sep-24 12:58N 44°06' E 039°04'0 0.0
2017-Sep-24 12:28N 44°06' E 039°04'0 0.0
2017-Sep-24 11:58N 44°06' E 039°04'0 0.0
2017-Sep-24 11:28N 44°06' E 039°04'0 0.0
2017-Sep-24 10:58N 44°06' E 039°04'0 0.0
2017-Sep-24 10:28N 44°06' E 039°04'0 0.0
2017-Sep-24 09:58N 44°06' E 039°04'0 0.0
2017-Sep-24 09:28N 44°06' E 039°04'0 0.0
2017-Sep-24 08:58N 44°06' E 039°04'0 0.0
2017-Sep-24 08:28N 44°06' E 039°04'0 0.0
2017-Sep-24 07:58N 44°06' E 039°04'0 0.0
2017-Sep-24 07:28N 44°06' E 039°04'0 0.0
2017-Sep-24 06:58N 44°06' E 039°04'0 0.0
2017-Sep-24 06:28N 44°06' E 039°04'0 0.0
2017-Sep-24 05:58N 44°06' E 039°04'0 0.0
2017-Sep-24 05:28N 44°06' E 039°04'0 0.0
2017-Sep-24 04:58N 44°06' E 039°04'0 0.0
2017-Sep-24 04:28N 44°06' E 039°04'0 0.0
2017-Sep-24 03:58N 44°06' E 039°04'0 0.0
2017-Sep-24 03:28N 44°06' E 039°04'0 0.0
2017-Sep-24 02:58N 44°06' E 039°04'0 0.0
2017-Sep-24 02:28N 44°06' E 039°04'0 0.0
2017-Sep-24 01:58N 44°06' E 039°04'0 0.0
2017-Sep-24 01:28N 44°06' E 039°04'0 0.0
2017-Sep-24 00:58N 44°06' E 039°04'0 0.0
2017-Sep-24 00:28N 44°06' E 039°04'0 0.0
2017-Sep-23 23:58N 44°06' E 039°04'0 0.0
2017-Sep-23 23:28N 44°06' E 039°04'0 0.0
2017-Sep-23 22:58N 44°06' E 039°04'0 0.0
2017-Sep-23 22:28N 44°06' E 039°04'  
Track history (hours):
 
Tides and Currents Weather Stations Pressure Air Temp Water Temp Dewpoint Dewpoint Depression Visibility Wind Speed Wind Dir Waves Ship Positions

Berkut

Last reported at 2017-Oct-03 22:02 UTC. Time now 2017-Oct-18 03:41 UTC.
Position N 44°08' E 038°52'.
Warning: this ship's position is 14 days out of date.

Length 22 m.

Type: Passenger vessel. MMSI: 273377780.

Date/timePositionNaut miles runAvg speedWind from/ knotsBaromVisibWave heightAir tempDewpointWater temp
2017-Oct-03 22:02N 44°08' E 038°52'0 8.3
2017-Oct-03 22:00N 44°07' E 038°53'4 8.2
2017-Oct-03 21:30N 44°05' E 038°57'4 8.2
2017-Oct-03 21:00N 44°02' E 039°01'4 8.0
2017-Oct-03 20:30N 43°60' E 039°06'  
2017-Sep-25 05:12N 44°01' E 039°09'1 6.3
2017-Sep-25 04:59N 44°02' E 039°07'3 6.1
2017-Sep-25 04:30N 44°04' E 039°05'2 4.0
2017-Sep-25 03:58N 44°06' E 039°04'0 0.0
2017-Sep-25 03:28N 44°06' E 039°04'0 0.0
2017-Sep-25 02:58N 44°06' E 039°04'0 0.0
2017-Sep-25 02:28N 44°06' E 039°04'0 0.0
2017-Sep-25 01:58N 44°06' E 039°04'0 0.0
2017-Sep-25 01:28N 44°06' E 039°04'0 0.0
2017-Sep-25 00:58N 44°06' E 039°04'0 0.0
2017-Sep-25 00:28N 44°06' E 039°04'0 0.0
2017-Sep-24 23:58N 44°06' E 039°04'0 0.0
2017-Sep-24 23:28N 44°06' E 039°04'0 0.0
2017-Sep-24 22:58N 44°06' E 039°04'0 0.0
2017-Sep-24 22:28N 44°06' E 039°04'0 0.0
2017-Sep-24 21:58N 44°06' E 039°04'0 0.0
2017-Sep-24 21:28N 44°06' E 039°04'0 0.0
2017-Sep-24 20:58N 44°06' E 039°04'0 0.0
2017-Sep-24 20:28N 44°06' E 039°04'0 0.0
2017-Sep-24 19:58N 44°06' E 039°04'0 0.0
2017-Sep-24 19:28N 44°06' E 039°04'0 0.0
2017-Sep-24 18:58N 44°06' E 039°04'0 0.0
2017-Sep-24 18:28N 44°06' E 039°04'0 0.0
2017-Sep-24 17:58N 44°06' E 039°04'0 0.0
2017-Sep-24 17:28N 44°06' E 039°04'0 0.0
2017-Sep-24 16:58N 44°06' E 039°04'0 0.0
2017-Sep-24 16:28N 44°06' E 039°04'0 0.1
2017-Sep-24 15:58N 44°06' E 039°04'0 0.0
2017-Sep-24 15:28N 44°06' E 039°04'0 0.0
2017-Sep-24 14:58N 44°06' E 039°04'0 0.0
2017-Sep-24 14:28N 44°06' E 039°04'0 0.0
2017-Sep-24 13:58N 44°06' E 039°04'0 0.0
2017-Sep-24 13:28N 44°06' E 039°04'0 0.0
2017-Sep-24 12:58N 44°06' E 039°04'0 0.0
2017-Sep-24 12:28N 44°06' E 039°04'0 0.0
2017-Sep-24 11:58N 44°06' E 039°04'0 0.0
2017-Sep-24 11:28N 44°06' E 039°04'0 0.0
2017-Sep-24 10:58N 44°06' E 039°04'0 0.0
2017-Sep-24 10:28N 44°06' E 039°04'0 0.0
2017-Sep-24 09:58N 44°06' E 039°04'0 0.0
2017-Sep-24 09:28N 44°06' E 039°04'0 0.0
2017-Sep-24 08:58N 44°06' E 039°04'0 0.0
2017-Sep-24 08:28N 44°06' E 039°04'0 0.0
2017-Sep-24 07:58N 44°06' E 039°04'0 0.0
2017-Sep-24 07:28N 44°06' E 039°04'0 0.0
2017-Sep-24 06:58N 44°06' E 039°04'0 0.0
2017-Sep-24 06:28N 44°06' E 039°04'0 0.0
2017-Sep-24 05:58N 44°06' E 039°04'0 0.0
2017-Sep-24 05:28N 44°06' E 039°04'0 0.0
2017-Sep-24 04:58N 44°06' E 039°04'0 0.0
2017-Sep-24 04:28N 44°06' E 039°04'0 0.0
2017-Sep-24 03:58N 44°06' E 039°04'0 0.0
2017-Sep-24 03:28N 44°06' E 039°04'0 0.0
2017-Sep-24 02:58N 44°06' E 039°04'0 0.0
2017-Sep-24 02:28N 44°06' E 039°04'0 0.0
2017-Sep-24 01:58N 44°06' E 039°04'0 0.0
2017-Sep-24 01:28N 44°06' E 039°04'0 0.0
2017-Sep-24 00:58N 44°06' E 039°04'0 0.0
2017-Sep-24 00:28N 44°06' E 039°04'0 0.0
2017-Sep-23 23:58N 44°06' E 039°04'0 0.0
2017-Sep-23 23:28N 44°06' E 039°04'0 0.0
2017-Sep-23 22:58N 44°06' E 039°04'0 0.0
2017-Sep-23 22:28N 44°06' E 039°04'  

Dump ship's entire track history